YGJ weather

Miho Yonago Airport
Yonago, Shimane Prefecture, Japan

Public forecast

Using degrees Celsius for public forecast. Weather courtesy of forecast.io.

Current aviation weather report (METAR) for Miho Yonago Airport

Retrieved 2019/10/21 06:00 UTC (5 minutes ago):

RJOH 210600Z 07012KT 9999 FEW025 BKN040 BKN180 20/15 Q1014

Aviation forecast (TAF) for Miho Yonago Airport

Retrieved 2019/10/21 06:00 UTC (5 minutes ago):

TAF RJOH 210508Z 2106/2212 06014KT 9999 FEW015 BKN045